地図

経路データ

SID SEASON NUMBER BASIN SUBBASIN NAME ISO_TIME NATURE LAT LON WMO_WIND WMO_PRES WMO_AGENCY TRACK_TYPE DIST2LAND LANDFALL IFLAG USA_AGENCY USA_ATCF_ID USA_LAT USA_LON USA_RECORD USA_STATUS USA_WIND USA_PRES USA_SSHS USA_R34_NE USA_R34_SE USA_R34_SW USA_R34_NW USA_R50_NE USA_R50_SE USA_R50_SW USA_R50_NW USA_R64_NE USA_R64_SE USA_R64_SW USA_R64_NW USA_POCI USA_ROCI USA_RMW USA_EYE TOKYO_LAT TOKYO_LON TOKYO_GRADE TOKYO_WIND TOKYO_PRES TOKYO_R50_DIR TOKYO_R50_LONG TOKYO_R50_SHORT TOKYO_R30_DIR TOKYO_R30_LONG TOKYO_R30_SHORT TOKYO_LAND CMA_LAT CMA_LON CMA_CAT CMA_WIND CMA_PRES HKO_LAT HKO_LON HKO_CAT HKO_WIND HKO_PRES NEWDELHI_LAT NEWDELHI_LON NEWDELHI_GRADE NEWDELHI_WIND NEWDELHI_PRES NEWDELHI_CI NEWDELHI_DP NEWDELHI_POCI REUNION_LAT REUNION_LON REUNION_TYPE REUNION_WIND REUNION_PRES REUNION_TNUM REUNION_CI REUNION_RMW REUNION_R34_NE REUNION_R34_SE REUNION_R34_SW REUNION_R34_NW REUNION_R50_NE REUNION_R50_SE REUNION_R50_SW REUNION_R50_NW REUNION_R64_NE REUNION_R64_SE REUNION_R64_SW REUNION_R64_NW BOM_LAT BOM_LON BOM_TYPE BOM_WIND BOM_PRES BOM_TNUM BOM_CI BOM_RMW BOM_R34_NE BOM_R34_SE BOM_R34_SW BOM_R34_NW BOM_R50_NE BOM_R50_SE BOM_R50_SW BOM_R50_NW BOM_R64_NE BOM_R64_SE BOM_R64_SW BOM_R64_NW BOM_ROCI BOM_POCI BOM_EYE BOM_POS_METHOD BOM_PRES_METHOD NADI_LAT NADI_LON NADI_CAT NADI_WIND NADI_PRES WELLINGTON_LAT WELLINGTON_LON WELLINGTON_WIND WELLINGTON_PRES DS824_LAT DS824_LON DS824_STAGE DS824_WIND DS824_PRES TD9636_LAT TD9636_LON TD9636_STAGE TD9636_WIND TD9636_PRES TD9635_LAT TD9635_LON TD9635_WIND TD9635_PRES TD9635_ROCI NEUMANN_LAT NEUMANN_LON NEUMANN_CLASS NEUMANN_WIND NEUMANN_PRES MLC_LAT MLC_LON MLC_CLASS MLC_WIND MLC_PRES USA_GUST BOM_GUST BOM_GUST_PER REUNION_GUST REUNION_GUST_PER USA_SEAHGT USA_SEARAD_NE USA_SEARAD_SE USA_SEARAD_SW USA_SEARAD_NW STORM_SPEED STORM_DIR
1923337N14131 1923 75 WP MM NOT_NAMED 1923-12-02 22:00:00 NR 13.5000 131.000 main 614 582 __________O___ -1 13.5000 131.000 7 8 281
1923337N14131 1923 75 WP MM NOT_NAMED 1923-12-03 00:00:00 NR 13.5484 130.741 main 582 554 __________P___ -1 13.5484 130.741 7 8 281
1923337N14131 1923 75 WP MM NOT_NAMED 1923-12-03 03:00:00 NR 13.6213 130.362 main 554 516 __________P___ -1 13.6213 130.362 7 7 282
1923337N14131 1923 75 WP MM NOT_NAMED 1923-12-03 06:00:00 NR 13.6957 130.008 main 516 489 __________P___ -1 13.6957 130.008 7 7 283
1923337N14131 1923 75 WP MM NOT_NAMED 1923-12-03 09:00:00 NR 13.7732 129.693 main 489 479 __________P___ -1 13.7732 129.693 7 6 285
1923337N14131 1923 75 WP MM NOT_NAMED 1923-12-03 10:00:00 NR 13.8000 129.600 main 479 463 __________O___ -1 13.8000 129.600 7 5 288
1923337N14131 1923 75 WP MM NOT_NAMED 1923-12-03 12:00:00 NR 13.8549 129.431 main 463 443 __________P___ -1 13.8549 129.431 7 5 290
1923337N14131 1923 75 WP MM NOT_NAMED 1923-12-03 15:00:00 NR 13.9375 129.204 main 443 429 __________P___ -1 13.9375 129.204 7 5 290
1923337N14131 1923 75 WP MM NOT_NAMED 1923-12-03 18:00:00 NR 14.0151 128.975 main 429 406 __________P___ -1 14.0151 128.975 7 5 287
1923337N14131 1923 75 WP MM NOT_NAMED 1923-12-03 21:00:00 NR 14.0815 128.705 main 406 397 __________P___ -1 14.0815 128.705 7 6 283
1923337N14131 1923 75 WP MM NOT_NAMED 1923-12-03 22:00:00 NR 14.1000 128.600 main 397 370 __________O___ -1 14.1000 128.600 7 7 278
1923337N14131 1923 75 WP MM NOT_NAMED 1923-12-04 00:00:00 NR 14.1308 128.346 main 370 343 __________P___ -1 14.1308 128.346 7 8 276
1923337N14131 1923 75 WP MM NOT_NAMED 1923-12-04 03:00:00 NR 14.1644 127.914 main 343 303 __________P___ -1 14.1644 127.914 7 9 274
1923337N14131 1923 75 WP MM NOT_NAMED 1923-12-04 06:00:00 NR 14.1856 127.443 main 303 272 __________P___ -1 14.1856 127.443 7 9 272
1923337N14131 1923 75 WP MM NOT_NAMED 1923-12-04 09:00:00 NR 14.1975 126.960 main 272 257 __________P___ -1 14.1975 126.960 7 9 271
1923337N14131 1923 75 WP MM NOT_NAMED 1923-12-04 10:00:00 NR 14.2000 126.800 main 257 229 __________O___ -1 14.2000 126.800 3 8 271
1923337N14131 1923 75 WP MM NOT_NAMED 1923-12-04 12:00:00 NR 14.2047 126.547 main 229 197 __________P___ -1 14.2047 126.547 3 7 271
1923337N14131 1923 75 WP MM NOT_NAMED 1923-12-04 15:00:00 NR 14.2058 126.169 main 197 144 __________P___ -1 14.2058 126.169 3 8 270
1923337N14131 1923 75 WP MM NOT_NAMED 1923-12-04 18:00:00 NR 14.2031 125.742 main 144 92 __________P___ -1 14.2031 125.742 3 9 270
1923337N14131 1923 75 WP MM NOT_NAMED 1923-12-04 21:00:00 NR 14.2004 125.210 main 92 72 __________P___ -1 14.2004 125.210 3 11 270
1923337N14131 1923 75 WP MM NOT_NAMED 1923-12-04 22:00:00 NR 14.2000 125.000 main 72 31 __________O___ -1 14.2000 125.000 4 14 270
1923337N14131 1923 75 WP MM NOT_NAMED 1923-12-05 00:00:00 NR 14.2008 124.497 main 31 22 __________P___ -1 14.2008 124.497 4 16 270
1923337N14131 1923 75 WP MM NOT_NAMED 1923-12-05 03:00:00 NR 14.2015 123.630 main 33 0 __________P___ -1 14.2015 123.630 4 18 270
1923337N14131 1923 75 WP MM NOT_NAMED 1923-12-05 06:00:00 NR 14.2012 122.682 main 0 0 __________P___ -1 14.2012 122.682 4 19 270
1923337N14131 1923 75 WP MM NOT_NAMED 1923-12-05 09:00:00 NR 14.2002 121.715 main 0 0 __________P___ -1 14.2002 121.715 4 19 270
1923337N14131 1923 75 WP MM NOT_NAMED 1923-12-05 10:00:00 NR 14.2000 121.400 main 0 0 __________O___ -1 14.2000 121.400 4 18 270
1923337N14131 1923 75 WP MM NOT_NAMED 1923-12-05 12:00:00 NR 14.1999 120.789 main 0 0 __________P___ -1 14.1999 120.789 4 17 270
1923337N14131 1923 75 WP MM NOT_NAMED 1923-12-05 15:00:00 NR 14.2004 119.917 main 63 63 __________P___ -1 14.2004 119.917 4 17 270
1923337N14131 1923 75 WP MM NOT_NAMED 1923-12-05 18:00:00 NR 14.2010 119.082 main 126 136 __________P___ -1 14.2010 119.082 4 16 270
1923337N14131 1923 75 WP MM NOT_NAMED 1923-12-05 21:00:00 NR 14.2006 118.269 main 205 215 __________P___ -1 14.2006 118.269 4 16 270
1923337N14131 1923 75 WP MM NOT_NAMED 1923-12-05 22:00:00 NR 14.2000 118.000 main 235 __________O___ -1 14.2000 118.000 4 16 270

デジタル台風データ・検索

IBTrACS Databaseについて

本データベースは、米国NOAAが公開する1842年以降の世界の熱帯低気圧のベストトラックデータアーカイブInternational Best Track Archive for Climate Stewardship (IBTrACS)を、ウェブで閲覧しやすい形式に変換したものです。

最終更新日:2021-10-08